Terminal Aerodrome Forecast
Issued by NWS Louisville, KY

Home | Current Version | Previous Version | Text Only | Print | Product List | Glossary On
Versions: 1 2 3 4 5 6 7 8 9 10 11 12 13 14 15 16 17 18 19 20 21
000
FTUS43 KLMK 241700
TAFSDF
TAF
KSDF 241729Z 2418/2524 24011G16KT 6SM HZ SCT030
     FM242300 21005KT P6SM FEW030 FEW250
     FM250800 18004KT 6SM BR FEW010 BKN130
     FM251600 18008KT P6SM -SHRA SCT015 BKN040=

USA.gov is the U.S. government's official web portal to all federal, state and local government web resources and services.